sensor_id;sensor_type;location;lat;lon;timestamp;P1;durP1;ratioP1;P2;durP2;ratioP2
3667;SDS011;24099;47.102;15.440;2023-05-25T00:01:51;2.00;;;1.45;;
3667;SDS011;24099;47.102;15.440;2023-05-25T00:04:22;1.45;;;1.30;;
3667;SDS011;24099;47.102;15.440;2023-05-25T00:06:54;1.45;;;1.25;;
3667;SDS011;24099;47.102;15.440;2023-05-25T00:09:23;2.67;;;1.70;;
3667;SDS011;24099;47.102;15.440;2023-05-25T00:11:52;2.55;;;1.65;;
3667;SDS011;24099;47.102;15.440;2023-05-25T00:14:20;1.92;;;1.33;;
3667;SDS011;24099;47.102;15.440;2023-05-25T00:16:48;1.45;;;1.35;;
3667;SDS011;24099;47.102;15.440;2023-05-25T00:19:15;2.35;;;1.38;;
3667;SDS011;24099;47.102;15.440;2023-05-25T00:21:46;1.65;;;1.40;;
3667;SDS011;24099;47.102;15.440;2023-05-25T00:24:14;1.90;;;1.40;;
3667;SDS011;24099;47.102;15.440;2023-05-25T00:26:44;1.52;;;1.25;;
3667;SDS011;24099;47.102;15.440;2023-05-25T00:29:13;4.28;;;1.27;;
3667;SDS011;24099;47.102;15.440;2023-05-25T00:31:41;1.60;;;1.30;;
3667;SDS011;24099;47.102;15.440;2023-05-25T00:34:11;2.17;;;1.67;;
3667;SDS011;24099;47.102;15.440;2023-05-25T00:36:39;1.92;;;1.40;;
3667;SDS011;24099;47.102;15.440;2023-05-25T00:39:08;1.73;;;1.35;;
3667;SDS011;24099;47.102;15.440;2023-05-25T00:41:37;1.45;;;1.35;;
3667;SDS011;24099;47.102;15.440;2023-05-25T00:44:07;1.27;;;1.00;;
3667;SDS011;24099;47.102;15.440;2023-05-25T00:46:36;3.30;;;1.42;;
3667;SDS011;24099;47.102;15.440;2023-05-25T00:49:04;3.00;;;1.30;;
3667;SDS011;24099;47.102;15.440;2023-05-25T00:51:32;1.88;;;1.33;;
3667;SDS011;24099;47.102;15.440;2023-05-25T00:54:01;1.50;;;1.30;;
3667;SDS011;24099;47.102;15.440;2023-05-25T00:56:29;3.53;;;1.63;;
3667;SDS011;24099;47.102;15.440;2023-05-25T00:59:05;3.33;;;1.25;;
3667;SDS011;24099;47.102;15.440;2023-05-25T01:01:37;1.70;;;1.50;;
3667;SDS011;24099;47.102;15.440;2023-05-25T01:04:09;2.00;;;1.63;;
3667;SDS011;24099;47.102;15.440;2023-05-25T01:06:39;3.15;;;1.52;;
3667;SDS011;24099;47.102;15.440;2023-05-25T01:09:15;2.35;;;1.73;;
3667;SDS011;24099;47.102;15.440;2023-05-25T01:11:48;1.33;;;1.20;;
3667;SDS011;24099;47.102;15.440;2023-05-25T01:14:18;2.13;;;1.60;;
3667;SDS011;24099;47.102;15.440;2023-05-25T01:16:48;2.30;;;1.58;;
3667;SDS011;24099;47.102;15.440;2023-05-25T01:19:17;2.08;;;1.50;;
3667;SDS011;24099;47.102;15.440;2023-05-25T01:21:48;2.10;;;1.67;;
3667;SDS011;24099;47.102;15.440;2023-05-25T01:24:24;2.05;;;1.80;;
3667;SDS011;24099;47.102;15.440;2023-05-25T01:29:29;1.50;;;1.40;;
3667;SDS011;24099;47.102;15.440;2023-05-25T01:32:01;2.17;;;1.45;;
3667;SDS011;24099;47.102;15.440;2023-05-25T01:34:32;4.95;;;1.70;;
3667;SDS011;24099;47.102;15.440;2023-05-25T01:37:03;2.97;;;1.77;;
3667;SDS011;24099;47.102;15.440;2023-05-25T01:39:34;1.55;;;1.17;;
3667;SDS011;24099;47.102;15.440;2023-05-25T01:42:02;2.65;;;1.42;;
3667;SDS011;24099;47.102;15.440;2023-05-25T01:44:33;1.55;;;1.45;;
3667;SDS011;24099;47.102;15.440;2023-05-25T01:47:02;2.65;;;1.52;;
3667;SDS011;24099;47.102;15.440;2023-05-25T01:49:36;2.08;;;1.70;;
3667;SDS011;24099;47.102;15.440;2023-05-25T01:52:11;2.03;;;1.70;;
3667;SDS011;24099;47.102;15.440;2023-05-25T01:57:14;2.40;;;1.48;;
3667;SDS011;24099;47.102;15.440;2023-05-25T01:59:45;1.45;;;1.35;;
3667;SDS011;24099;47.102;15.440;2023-05-25T02:02:16;1.60;;;1.25;;
3667;SDS011;24099;47.102;15.440;2023-05-25T02:04:45;1.65;;;1.30;;
3667;SDS011;24099;47.102;15.440;2023-05-25T02:07:16;1.67;;;1.25;;
3667;SDS011;24099;47.102;15.440;2023-05-25T02:09:55;1.98;;;1.33;;
3667;SDS011;24099;47.102;15.440;2023-05-25T02:12:23;1.50;;;1.40;;
3667;SDS011;24099;47.102;15.440;2023-05-25T02:14:51;2.00;;;1.73;;
3667;SDS011;24099;47.102;15.440;2023-05-25T02:17:18;2.13;;;1.48;;
3667;SDS011;24099;47.102;15.440;2023-05-25T02:19:47;1.95;;;1.48;;
3667;SDS011;24099;47.102;15.440;2023-05-25T02:22:19;2.13;;;1.45;;
3667;SDS011;24099;47.102;15.440;2023-05-25T02:24:47;1.83;;;1.38;;
3667;SDS011;24099;47.102;15.440;2023-05-25T02:27:19;1.60;;;1.23;;
3667;SDS011;24099;47.102;15.440;2023-05-25T02:29:49;1.55;;;1.42;;
3667;SDS011;24099;47.102;15.440;2023-05-25T02:32:18;1.42;;;1.33;;
3667;SDS011;24099;47.102;15.440;2023-05-25T02:34:46;1.70;;;1.60;;
3667;SDS011;24099;47.102;15.440;2023-05-25T02:37:19;1.60;;;1.38;;
3667;SDS011;24099;47.102;15.440;2023-05-25T02:39:47;1.38;;;1.20;;
3667;SDS011;24099;47.102;15.440;2023-05-25T02:42:15;1.95;;;1.40;;
3667;SDS011;24099;47.102;15.440;2023-05-25T02:44:46;1.08;;;0.98;;
3667;SDS011;24099;47.102;15.440;2023-05-25T02:47:14;1.35;;;1.17;;
3667;SDS011;24099;47.102;15.440;2023-05-25T02:49:43;1.10;;;1.00;;
3667;SDS011;24099;47.102;15.440;2023-05-25T02:52:11;1.63;;;1.27;;
3667;SDS011;24099;47.102;15.440;2023-05-25T02:54:40;2.17;;;1.70;;
3667;SDS011;24099;47.102;15.440;2023-05-25T02:57:12;4.60;;;1.73;;
3667;SDS011;24099;47.102;15.440;2023-05-25T02:59:41;1.40;;;1.25;;
3667;SDS011;24099;47.102;15.440;2023-05-25T03:02:08;1.35;;;1.25;;
3667;SDS011;24099;47.102;15.440;2023-05-25T03:04:37;1.73;;;1.20;;
3667;SDS011;24099;47.102;15.440;2023-05-25T03:07:06;2.58;;;1.33;;
3667;SDS011;24099;47.102;15.440;2023-05-25T03:09:34;1.23;;;1.13;;
3667;SDS011;24099;47.102;15.440;2023-05-25T03:12:06;1.95;;;1.08;;
3667;SDS011;24099;47.102;15.440;2023-05-25T03:14:34;1.75;;;1.27;;
3667;SDS011;24099;47.102;15.440;2023-05-25T03:17:03;1.13;;;1.02;;
3667;SDS011;24099;47.102;15.440;2023-05-25T03:19:32;1.70;;;1.27;;
3667;SDS011;24099;47.102;15.440;2023-05-25T03:22:02;1.83;;;1.52;;
3667;SDS011;24099;47.102;15.440;2023-05-25T03:24:32;1.80;;;1.20;;
3667;SDS011;24099;47.102;15.440;2023-05-25T03:27:01;5.10;;;1.17;;
3667;SDS011;24099;47.102;15.440;2023-05-25T03:29:30;5.13;;;1.08;;
3667;SDS011;24099;47.102;15.440;2023-05-25T03:31:58;1.38;;;1.20;;
3667;SDS011;24099;47.102;15.440;2023-05-25T03:34:30;1.70;;;1.33;;
3667;SDS011;24099;47.102;15.440;2023-05-25T03:37:00;1.83;;;1.50;;
3667;SDS011;24099;47.102;15.440;2023-05-25T03:39:29;2.22;;;1.40;;
3667;SDS011;24099;47.102;15.440;2023-05-25T03:41:57;3.35;;;1.60;;
3667;SDS011;24099;47.102;15.440;2023-05-25T03:44:25;1.77;;;1.27;;
3667;SDS011;24099;47.102;15.440;2023-05-25T03:46:54;1.60;;;1.50;;
3667;SDS011;24099;47.102;15.440;2023-05-25T03:49:21;1.30;;;1.20;;
3667;SDS011;24099;47.102;15.440;2023-05-25T03:51:49;6.80;;;1.15;;
3667;SDS011;24099;47.102;15.440;2023-05-25T03:54:17;5.95;;;1.15;;
3667;SDS011;24099;47.102;15.440;2023-05-25T03:56:46;1.40;;;1.27;;
3667;SDS011;24099;47.102;15.440;2023-05-25T03:59:14;1.15;;;1.05;;
3667;SDS011;24099;47.102;15.440;2023-05-25T04:01:42;1.38;;;1.17;;
3667;SDS011;24099;47.102;15.440;2023-05-25T04:04:11;1.67;;;1.20;;
3667;SDS011;24099;47.102;15.440;2023-05-25T04:06:40;4.30;;;1.40;;
3667;SDS011;24099;47.102;15.440;2023-05-25T04:09:10;2.55;;;1.17;;
3667;SDS011;24099;47.102;15.440;2023-05-25T04:11:37;1.48;;;1.10;;
3667;SDS011;24099;47.102;15.440;2023-05-25T04:14:05;1.67;;;1.00;;
3667;SDS011;24099;47.102;15.440;2023-05-25T04:16:37;3.65;;;1.30;;
3667;SDS011;24099;47.102;15.440;2023-05-25T04:19:06;1.35;;;1.25;;
3667;SDS011;24099;47.102;15.440;2023-05-25T04:21:36;1.55;;;1.13;;
3667;SDS011;24099;47.102;15.440;2023-05-25T04:24:05;2.10;;;1.15;;
3667;SDS011;24099;47.102;15.440;2023-05-25T04:26:33;1.52;;;1.00;;
3667;SDS011;24099;47.102;15.440;2023-05-25T04:29:04;1.17;;;1.02;;
3667;SDS011;24099;47.102;15.440;2023-05-25T04:31:55;1.40;;;1.20;;
3667;SDS011;24099;47.102;15.440;2023-05-25T04:34:32;1.27;;;1.17;;
3667;SDS011;24099;47.102;15.440;2023-05-25T04:37:11;1.30;;;1.20;;
3667;SDS011;24099;47.102;15.440;2023-05-25T04:39:38;1.40;;;1.30;;
3667;SDS011;24099;47.102;15.440;2023-05-25T04:42:06;1.80;;;1.60;;
3667;SDS011;24099;47.102;15.440;2023-05-25T04:44:34;1.23;;;0.90;;
3667;SDS011;24099;47.102;15.440;2023-05-25T04:47:04;2.88;;;1.10;;
3667;SDS011;24099;47.102;15.440;2023-05-25T04:49:32;1.35;;;1.20;;
3667;SDS011;24099;47.102;15.440;2023-05-25T04:52:00;1.33;;;1.23;;
3667;SDS011;24099;47.102;15.440;2023-05-25T04:54:31;1.48;;;1.30;;
3667;SDS011;24099;47.102;15.440;2023-05-25T04:57:01;1.42;;;1.25;;
3667;SDS011;24099;47.102;15.440;2023-05-25T04:59:30;1.17;;;1.08;;
3667;SDS011;24099;47.102;15.440;2023-05-25T05:01:58;1.70;;;1.35;;
3667;SDS011;24099;47.102;15.440;2023-05-25T05:04:26;1.70;;;1.15;;
3667;SDS011;24099;47.102;15.440;2023-05-25T05:06:54;1.55;;;1.25;;
3667;SDS011;24099;47.102;15.440;2023-05-25T05:09:23;1.15;;;0.98;;
3667;SDS011;24099;47.102;15.440;2023-05-25T05:11:55;1.05;;;1.00;;
3667;SDS011;24099;47.102;15.440;2023-05-25T05:14:22;1.48;;;1.10;;
3667;SDS011;24099;47.102;15.440;2023-05-25T05:16:51;1.95;;;1.35;;
3667;SDS011;24099;47.102;15.440;2023-05-25T05:19:20;1.50;;;1.02;;
3667;SDS011;24099;47.102;15.440;2023-05-25T05:21:47;1.77;;;1.65;;
3667;SDS011;24099;47.102;15.440;2023-05-25T05:24:16;1.48;;;1.38;;
3667;SDS011;24099;47.102;15.440;2023-05-25T05:26:45;5.10;;;1.63;;
3667;SDS011;24099;47.102;15.440;2023-05-25T05:29:14;2.05;;;1.80;;
3667;SDS011;24099;47.102;15.440;2023-05-25T05:31:44;2.53;;;1.80;;
3667;SDS011;24099;47.102;15.440;2023-05-25T05:34:12;2.47;;;1.88;;
3667;SDS011;24099;47.102;15.440;2023-05-25T05:36:41;4.25;;;2.03;;
3667;SDS011;24099;47.102;15.440;2023-05-25T05:39:10;3.28;;;1.77;;
3667;SDS011;24099;47.102;15.440;2023-05-25T05:41:39;2.55;;;1.60;;
3667;SDS011;24099;47.102;15.440;2023-05-25T05:44:09;3.20;;;2.20;;
3667;SDS011;24099;47.102;15.440;2023-05-25T05:46:38;3.38;;;2.33;;
3667;SDS011;24099;47.102;15.440;2023-05-25T05:49:06;2.33;;;1.50;;
3667;SDS011;24099;47.102;15.440;2023-05-25T05:51:34;3.50;;;2.20;;
3667;SDS011;24099;47.102;15.440;2023-05-25T05:54:02;3.15;;;2.08;;
3667;SDS011;24099;47.102;15.440;2023-05-25T05:56:30;2.25;;;1.98;;
3667;SDS011;24099;47.102;15.440;2023-05-25T05:58:58;2.38;;;1.70;;
3667;SDS011;24099;47.102;15.440;2023-05-25T06:01:26;2.75;;;1.95;;
3667;SDS011;24099;47.102;15.440;2023-05-25T06:03:55;3.88;;;2.33;;
3667;SDS011;24099;47.102;15.440;2023-05-25T06:06:23;3.03;;;2.00;;
3667;SDS011;24099;47.102;15.440;2023-05-25T06:08:52;2.38;;;1.77;;
3667;SDS011;24099;47.102;15.440;2023-05-25T06:11:20;3.42;;;2.22;;
3667;SDS011;24099;47.102;15.440;2023-05-25T06:13:47;6.85;;;2.30;;
3667;SDS011;24099;47.102;15.440;2023-05-25T06:16:15;3.00;;;2.03;;
3667;SDS011;24099;47.102;15.440;2023-05-25T06:18:43;2.80;;;2.13;;
3667;SDS011;24099;47.102;15.440;2023-05-25T06:21:12;2.42;;;2.17;;
3667;SDS011;24099;47.102;15.440;2023-05-25T06:23:40;6.20;;;2.70;;
3667;SDS011;24099;47.102;15.440;2023-05-25T06:26:08;2.28;;;1.90;;
3667;SDS011;24099;47.102;15.440;2023-05-25T06:28:36;3.65;;;2.85;;
3667;SDS011;24099;47.102;15.440;2023-05-25T06:31:03;4.25;;;2.70;;
3667;SDS011;24099;47.102;15.440;2023-05-25T06:33:31;3.28;;;2.40;;
3667;SDS011;24099;47.102;15.440;2023-05-25T06:35:59;2.28;;;1.95;;
3667;SDS011;24099;47.102;15.440;2023-05-25T06:38:28;3.67;;;2.33;;
3667;SDS011;24099;47.102;15.440;2023-05-25T06:40:58;3.30;;;2.22;;
3667;SDS011;24099;47.102;15.440;2023-05-25T06:43:28;3.10;;;2.70;;
3667;SDS011;24099;47.102;15.440;2023-05-25T06:46:22;3.03;;;2.35;;
3667;SDS011;24099;47.102;15.440;2023-05-25T06:48:49;3.78;;;2.20;;
3667;SDS011;24099;47.102;15.440;2023-05-25T06:51:17;3.42;;;2.38;;
3667;SDS011;24099;47.102;15.440;2023-05-25T06:53:46;3.80;;;2.30;;
3667;SDS011;24099;47.102;15.440;2023-05-25T06:56:14;4.05;;;2.75;;
3667;SDS011;24099;47.102;15.440;2023-05-25T06:58:45;4.10;;;2.50;;
3667;SDS011;24099;47.102;15.440;2023-05-25T07:01:13;2.88;;;2.33;;
3667;SDS011;24099;47.102;15.440;2023-05-25T07:03:41;3.63;;;2.42;;
3667;SDS011;24099;47.102;15.440;2023-05-25T07:06:09;4.25;;;2.78;;
3667;SDS011;24099;47.102;15.440;2023-05-25T07:08:45;4.63;;;2.45;;
3667;SDS011;24099;47.102;15.440;2023-05-25T07:11:14;3.30;;;2.33;;
3667;SDS011;24099;47.102;15.440;2023-05-25T07:13:44;4.05;;;2.65;;
3667;SDS011;24099;47.102;15.440;2023-05-25T07:16:12;3.88;;;2.40;;
3667;SDS011;24099;47.102;15.440;2023-05-25T07:18:40;3.40;;;2.10;;
3667;SDS011;24099;47.102;15.440;2023-05-25T07:21:08;4.47;;;2.60;;
3667;SDS011;24099;47.102;15.440;2023-05-25T07:23:36;4.97;;;2.85;;
3667;SDS011;24099;47.102;15.440;2023-05-25T07:26:07;4.50;;;3.05;;
3667;SDS011;24099;47.102;15.440;2023-05-25T07:28:35;4.32;;;2.60;;
3667;SDS011;24099;47.102;15.440;2023-05-25T07:31:03;5.25;;;2.88;;
3667;SDS011;24099;47.102;15.440;2023-05-25T07:33:30;7.82;;;2.88;;
3667;SDS011;24099;47.102;15.440;2023-05-25T07:36:01;7.10;;;2.80;;
3667;SDS011;24099;47.102;15.440;2023-05-25T07:38:29;5.93;;;2.90;;
3667;SDS011;24099;47.102;15.440;2023-05-25T07:40:57;6.30;;;2.95;;
3667;SDS011;24099;47.102;15.440;2023-05-25T07:43:26;5.22;;;2.88;;
3667;SDS011;24099;47.102;15.440;2023-05-25T07:45:54;4.82;;;3.28;;
3667;SDS011;24099;47.102;15.440;2023-05-25T07:48:22;5.10;;;3.65;;
3667;SDS011;24099;47.102;15.440;2023-05-25T07:50:49;7.43;;;3.63;;
3667;SDS011;24099;47.102;15.440;2023-05-25T07:53:17;5.00;;;2.70;;
3667;SDS011;24099;47.102;15.440;2023-05-25T07:55:45;4.63;;;2.97;;
3667;SDS011;24099;47.102;15.440;2023-05-25T07:58:13;5.30;;;3.30;;
3667;SDS011;24099;47.102;15.440;2023-05-25T08:00:42;4.85;;;2.90;;
3667;SDS011;24099;47.102;15.440;2023-05-25T08:03:10;4.32;;;3.20;;
3667;SDS011;24099;47.102;15.440;2023-05-25T08:05:38;5.10;;;3.20;;
3667;SDS011;24099;47.102;15.440;2023-05-25T08:08:06;7.00;;;3.15;;
3667;SDS011;24099;47.102;15.440;2023-05-25T08:10:34;4.85;;;3.13;;
3667;SDS011;24099;47.102;15.440;2023-05-25T08:13:02;11.40;;;2.78;;
3667;SDS011;24099;47.102;15.440;2023-05-25T08:15:30;3.90;;;2.80;;
3667;SDS011;24099;47.102;15.440;2023-05-25T08:17:59;3.42;;;2.50;;
3667;SDS011;24099;47.102;15.440;2023-05-25T08:20:28;6.45;;;2.88;;
3667;SDS011;24099;47.102;15.440;2023-05-25T08:22:56;3.90;;;2.28;;
3667;SDS011;24099;47.102;15.440;2023-05-25T08:25:26;3.45;;;2.58;;
3667;SDS011;24099;47.102;15.440;2023-05-25T08:27:53;4.35;;;2.10;;
3667;SDS011;24099;47.102;15.440;2023-05-25T08:30:21;7.07;;;2.45;;
3667;SDS011;24099;47.102;15.440;2023-05-25T08:32:49;5.20;;;2.45;;
3667;SDS011;24099;47.102;15.440;2023-05-25T08:35:18;5.82;;;2.53;;
3667;SDS011;24099;47.102;15.440;2023-05-25T08:37:46;6.55;;;2.63;;
3667;SDS011;24099;47.102;15.440;2023-05-25T08:40:14;3.20;;;2.47;;
3667;SDS011;24099;47.102;15.440;2023-05-25T08:42:42;3.25;;;2.13;;
3667;SDS011;24099;47.102;15.440;2023-05-25T08:45:11;4.30;;;2.22;;
3667;SDS011;24099;47.102;15.440;2023-05-25T08:47:40;2.80;;;2.20;;
3667;SDS011;24099;47.102;15.440;2023-05-25T08:50:09;2.70;;;2.10;;
3667;SDS011;24099;47.102;15.440;2023-05-25T08:52:39;2.88;;;2.38;;
3667;SDS011;24099;47.102;15.440;2023-05-25T08:55:11;3.05;;;2.10;;
3667;SDS011;24099;47.102;15.440;2023-05-25T08:57:44;7.10;;;2.50;;
3667;SDS011;24099;47.102;15.440;2023-05-25T09:00:16;7.27;;;2.13;;
3667;SDS011;24099;47.102;15.440;2023-05-25T09:02:53;3.30;;;2.30;;
3667;SDS011;24099;47.102;15.440;2023-05-25T09:05:27;2.53;;;2.33;;
3667;SDS011;24099;47.102;15.440;2023-05-25T09:07:56;6.75;;;2.20;;
3667;SDS011;24099;47.102;15.440;2023-05-25T09:10:25;2.58;;;2.15;;
3667;SDS011;24099;47.102;15.440;2023-05-25T09:12:55;4.32;;;2.60;;
3667;SDS011;24099;47.102;15.440;2023-05-25T09:15:23;1.92;;;1.73;;
3667;SDS011;24099;47.102;15.440;2023-05-25T09:17:50;2.53;;;2.20;;
3667;SDS011;24099;47.102;15.440;2023-05-25T09:20:23;1.80;;;1.70;;
3667;SDS011;24099;47.102;15.440;2023-05-25T09:22:57;7.10;;;2.20;;
3667;SDS011;24099;47.102;15.440;2023-05-25T09:25:25;2.03;;;1.63;;
3667;SDS011;24099;47.102;15.440;2023-05-25T09:27:55;4.50;;;1.92;;
3667;SDS011;24099;47.102;15.440;2023-05-25T09:30:23;1.80;;;1.48;;
3667;SDS011;24099;47.102;15.440;2023-05-25T09:33:07;3.17;;;1.98;;
3667;SDS011;24099;47.102;15.440;2023-05-25T09:35:36;5.45;;;1.98;;
3667;SDS011;24099;47.102;15.440;2023-05-25T09:38:06;2.60;;;1.80;;
3667;SDS011;24099;47.102;15.440;2023-05-25T09:40:34;3.25;;;1.70;;
3667;SDS011;24099;47.102;15.440;2023-05-25T09:43:03;2.33;;;1.77;;
3667;SDS011;24099;47.102;15.440;2023-05-25T09:45:31;2.58;;;1.90;;
3667;SDS011;24099;47.102;15.440;2023-05-25T09:48:00;2.58;;;1.60;;
3667;SDS011;24099;47.102;15.440;2023-05-25T09:50:28;3.92;;;2.20;;
3667;SDS011;24099;47.102;15.440;2023-05-25T09:52:57;3.80;;;2.28;;
3667;SDS011;24099;47.102;15.440;2023-05-25T09:55:27;3.28;;;2.10;;
3667;SDS011;24099;47.102;15.440;2023-05-25T09:57:56;2.63;;;2.20;;
3667;SDS011;24099;47.102;15.440;2023-05-25T10:00:24;2.55;;;1.80;;
3667;SDS011;24099;47.102;15.440;2023-05-25T10:02:52;3.45;;;2.00;;
3667;SDS011;24099;47.102;15.440;2023-05-25T10:05:20;1.88;;;1.67;;
3667;SDS011;24099;47.102;15.440;2023-05-25T10:07:49;2.88;;;1.80;;
3667;SDS011;24099;47.102;15.440;2023-05-25T10:10:18;2.03;;;1.67;;
3667;SDS011;24099;47.102;15.440;2023-05-25T10:12:49;3.63;;;2.05;;
3667;SDS011;24099;47.102;15.440;2023-05-25T10:15:21;7.40;;;1.83;;
3667;SDS011;24099;47.102;15.440;2023-05-25T10:17:51;5.53;;;1.90;;
3667;SDS011;24099;47.102;15.440;2023-05-25T10:20:20;2.22;;;1.60;;
3667;SDS011;24099;47.102;15.440;2023-05-25T10:22:50;3.00;;;1.77;;
3667;SDS011;24099;47.102;15.440;2023-05-25T10:25:25;3.72;;;1.83;;
3667;SDS011;24099;47.102;15.440;2023-05-25T10:27:59;1.75;;;1.60;;
3667;SDS011;24099;47.102;15.440;2023-05-25T10:30:29;2.10;;;1.88;;
3667;SDS011;24099;47.102;15.440;2023-05-25T10:32:58;4.28;;;1.73;;
3667;SDS011;24099;47.102;15.440;2023-05-25T10:35:27;4.05;;;1.60;;
3667;SDS011;24099;47.102;15.440;2023-05-25T10:37:55;3.28;;;2.20;;
3667;SDS011;24099;47.102;15.440;2023-05-25T10:40:25;3.95;;;1.80;;
3667;SDS011;24099;47.102;15.440;2023-05-25T10:42:53;3.17;;;1.67;;
3667;SDS011;24099;47.102;15.440;2023-05-25T10:45:23;2.60;;;1.90;;
3667;SDS011;24099;47.102;15.440;2023-05-25T10:47:51;2.50;;;1.90;;
3667;SDS011;24099;47.102;15.440;2023-05-25T10:50:19;5.32;;;1.73;;
3667;SDS011;24099;47.102;15.440;2023-05-25T10:52:58;2.38;;;1.52;;
3667;SDS011;24099;47.102;15.440;2023-05-25T10:55:28;2.67;;;1.88;;
3667;SDS011;24099;47.102;15.440;2023-05-25T10:58:09;2.55;;;1.50;;
3667;SDS011;24099;47.102;15.440;2023-05-25T11:00:40;3.00;;;1.50;;
3667;SDS011;24099;47.102;15.440;2023-05-25T11:03:08;2.20;;;1.88;;
3667;SDS011;24099;47.102;15.440;2023-05-25T11:05:38;5.32;;;2.25;;
3667;SDS011;24099;47.102;15.440;2023-05-25T11:08:07;2.33;;;1.85;;
3667;SDS011;24099;47.102;15.440;2023-05-25T11:13:34;3.92;;;1.65;;
3667;SDS011;24099;47.102;15.440;2023-05-25T11:16:16;3.17;;;1.80;;
3667;SDS011;24099;47.102;15.440;2023-05-25T11:18:49;2.83;;;1.60;;
3667;SDS011;24099;47.102;15.440;2023-05-25T11:24:13;3.33;;;1.90;;
3667;SDS011;24099;47.102;15.440;2023-05-25T11:26:53;2.58;;;1.67;;
3667;SDS011;24099;47.102;15.440;2023-05-25T11:29:31;2.58;;;1.75;;
3667;SDS011;24099;47.102;15.440;2023-05-25T11:32:02;2.22;;;1.70;;
3667;SDS011;24099;47.102;15.440;2023-05-25T11:34:31;2.22;;;1.73;;
3667;SDS011;24099;47.102;15.440;2023-05-25T11:36:59;3.13;;;1.90;;
3667;SDS011;24099;47.102;15.440;2023-05-25T11:39:30;2.63;;;1.52;;
3667;SDS011;24099;47.102;15.440;2023-05-25T11:42:00;2.72;;;1.73;;
3667;SDS011;24099;47.102;15.440;2023-05-25T11:44:31;1.80;;;1.63;;
3667;SDS011;24099;47.102;15.440;2023-05-25T11:47:02;2.10;;;1.60;;
3667;SDS011;24099;47.102;15.440;2023-05-25T11:49:34;1.65;;;1.55;;
3667;SDS011;24099;47.102;15.440;2023-05-25T11:52:06;1.80;;;1.48;;
3667;SDS011;24099;47.102;15.440;2023-05-25T11:54:34;2.22;;;1.63;;
3667;SDS011;24099;47.102;15.440;2023-05-25T11:57:11;3.10;;;1.75;;
3667;SDS011;24099;47.102;15.440;2023-05-25T11:59:40;9.18;;;2.15;;
3667;SDS011;24099;47.102;15.440;2023-05-25T12:02:16;2.95;;;1.85;;
3667;SDS011;24099;47.102;15.440;2023-05-25T12:04:52;3.88;;;1.60;;
3667;SDS011;24099;47.102;15.440;2023-05-25T12:07:20;3.47;;;1.80;;
3667;SDS011;24099;47.102;15.440;2023-05-25T12:09:48;7.18;;;1.63;;
3667;SDS011;24099;47.102;15.440;2023-05-25T12:12:18;1.70;;;1.35;;
3667;SDS011;24099;47.102;15.440;2023-05-25T12:14:46;1.88;;;1.63;;
3667;SDS011;24099;47.102;15.440;2023-05-25T12:17:15;2.20;;;1.70;;
3667;SDS011;24099;47.102;15.440;2023-05-25T12:19:46;4.57;;;2.10;;
3667;SDS011;24099;47.102;15.440;2023-05-25T12:22:14;3.38;;;1.80;;
3667;SDS011;24099;47.102;15.440;2023-05-25T12:24:42;2.28;;;1.70;;
3667;SDS011;24099;47.102;15.440;2023-05-25T12:27:15;3.35;;;1.52;;
3667;SDS011;24099;47.102;15.440;2023-05-25T12:29:47;5.40;;;1.90;;
3667;SDS011;24099;47.102;15.440;2023-05-25T12:32:19;2.38;;;1.50;;
3667;SDS011;24099;47.102;15.440;2023-05-25T12:34:49;3.97;;;1.63;;
3667;SDS011;24099;47.102;15.440;2023-05-25T12:37:26;2.08;;;1.63;;
3667;SDS011;24099;47.102;15.440;2023-05-25T12:39:54;2.08;;;1.70;;
3667;SDS011;24099;47.102;15.440;2023-05-25T12:42:22;1.60;;;1.45;;
3667;SDS011;24099;47.102;15.440;2023-05-25T12:44:53;1.52;;;1.40;;
3667;SDS011;24099;47.102;15.440;2023-05-25T12:47:26;4.78;;;1.98;;
3667;SDS011;24099;47.102;15.440;2023-05-25T12:50:09;4.05;;;1.60;;
3667;SDS011;24099;47.102;15.440;2023-05-25T12:52:41;4.47;;;1.60;;
3667;SDS011;24099;47.102;15.440;2023-05-25T12:55:23;3.47;;;1.83;;
3667;SDS011;24099;47.102;15.440;2023-05-25T12:57:52;3.60;;;1.70;;
3667;SDS011;24099;47.102;15.440;2023-05-25T13:00:22;2.40;;;1.67;;
3667;SDS011;24099;47.102;15.440;2023-05-25T13:02:55;1.48;;;1.38;;
3667;SDS011;24099;47.102;15.440;2023-05-25T13:05:23;2.38;;;1.55;;
3667;SDS011;24099;47.102;15.440;2023-05-25T13:07:53;4.85;;;1.85;;
3667;SDS011;24099;47.102;15.440;2023-05-25T13:10:24;3.90;;;1.80;;
3667;SDS011;24099;47.102;15.440;2023-05-25T13:12:53;2.45;;;1.50;;
3667;SDS011;24099;47.102;15.440;2023-05-25T13:15:23;1.75;;;1.50;;
3667;SDS011;24099;47.102;15.440;2023-05-25T13:17:52;4.82;;;1.60;;
3667;SDS011;24099;47.102;15.440;2023-05-25T13:20:23;2.75;;;1.90;;
3667;SDS011;24099;47.102;15.440;2023-05-25T13:22:52;2.95;;;1.63;;
3667;SDS011;24099;47.102;15.440;2023-05-25T13:25:21;2.72;;;1.70;;
3667;SDS011;24099;47.102;15.440;2023-05-25T13:27:51;2.50;;;1.40;;
3667;SDS011;24099;47.102;15.440;2023-05-25T13:30:20;2.83;;;1.75;;
3667;SDS011;24099;47.102;15.440;2023-05-25T13:32:48;7.15;;;1.70;;
3667;SDS011;24099;47.102;15.440;2023-05-25T13:35:18;3.28;;;1.70;;
3667;SDS011;24099;47.102;15.440;2023-05-25T13:38:01;4.45;;;1.40;;
3667;SDS011;24099;47.102;15.440;2023-05-25T13:40:29;3.47;;;1.73;;
3667;SDS011;24099;47.102;15.440;2023-05-25T13:42:57;2.33;;;1.60;;
3667;SDS011;24099;47.102;15.440;2023-05-25T13:45:25;1.40;;;1.30;;
3667;SDS011;24099;47.102;15.440;2023-05-25T13:47:53;2.80;;;1.60;;
3667;SDS011;24099;47.102;15.440;2023-05-25T13:50:22;2.13;;;1.50;;
3667;SDS011;24099;47.102;15.440;2023-05-25T13:52:50;4.07;;;1.90;;
3667;SDS011;24099;47.102;15.440;2023-05-25T13:55:18;3.15;;;1.73;;
3667;SDS011;24099;47.102;15.440;2023-05-25T13:57:47;2.25;;;1.42;;
3667;SDS011;24099;47.102;15.440;2023-05-25T14:00:16;5.20;;;1.35;;
3667;SDS011;24099;47.102;15.440;2023-05-25T14:02:46;2.80;;;1.90;;
3667;SDS011;24099;47.102;15.440;2023-05-25T14:05:14;2.83;;;1.73;;
3667;SDS011;24099;47.102;15.440;2023-05-25T14:07:45;2.92;;;1.90;;
3667;SDS011;24099;47.102;15.440;2023-05-25T14:10:13;2.08;;;1.63;;
3667;SDS011;24099;47.102;15.440;2023-05-25T14:12:41;1.95;;;1.70;;
3667;SDS011;24099;47.102;15.440;2023-05-25T14:15:12;1.50;;;1.40;;
3667;SDS011;24099;47.102;15.440;2023-05-25T14:17:40;3.45;;;1.80;;
3667;SDS011;24099;47.102;15.440;2023-05-25T14:20:08;4.03;;;2.13;;
3667;SDS011;24099;47.102;15.440;2023-05-25T14:22:40;2.80;;;1.63;;
3667;SDS011;24099;47.102;15.440;2023-05-25T14:25:16;1.80;;;1.63;;
3667;SDS011;24099;47.102;15.440;2023-05-25T14:27:44;1.92;;;1.80;;
3667;SDS011;24099;47.102;15.440;2023-05-25T14:30:12;3.60;;;1.40;;
3667;SDS011;24099;47.102;15.440;2023-05-25T14:32:40;1.75;;;1.50;;
3667;SDS011;24099;47.102;15.440;2023-05-25T14:35:08;1.25;;;1.15;;
3667;SDS011;24099;47.102;15.440;2023-05-25T14:37:36;3.30;;;1.55;;
3667;SDS011;24099;47.102;15.440;2023-05-25T14:40:04;2.88;;;1.45;;
3667;SDS011;24099;47.102;15.440;2023-05-25T14:42:34;2.65;;;1.70;;
3667;SDS011;24099;47.102;15.440;2023-05-25T14:45:02;1.77;;;1.48;;
3667;SDS011;24099;47.102;15.440;2023-05-25T14:47:30;2.95;;;2.00;;
3667;SDS011;24099;47.102;15.440;2023-05-25T14:49:58;2.38;;;1.70;;
3667;SDS011;24099;47.102;15.440;2023-05-25T14:52:28;1.83;;;1.58;;
3667;SDS011;24099;47.102;15.440;2023-05-25T14:54:55;2.45;;;1.63;;
3667;SDS011;24099;47.102;15.440;2023-05-25T14:57:23;2.67;;;1.65;;
3667;SDS011;24099;47.102;15.440;2023-05-25T14:59:53;1.80;;;1.50;;
3667;SDS011;24099;47.102;15.440;2023-05-25T15:02:23;2.08;;;1.73;;
3667;SDS011;24099;47.102;15.440;2023-05-25T15:04:51;2.20;;;1.52;;
3667;SDS011;24099;47.102;15.440;2023-05-25T15:07:19;1.60;;;1.50;;
3667;SDS011;24099;47.102;15.440;2023-05-25T15:09:47;3.75;;;1.73;;
3667;SDS011;24099;47.102;15.440;2023-05-25T15:12:15;1.90;;;1.55;;
3667;SDS011;24099;47.102;15.440;2023-05-25T15:14:43;2.45;;;1.40;;